Detalhes do Voo

Voltar

 DETALHES DO VÔO

Piloto: GLD879 Adalberto L. Aeronave: Cessna Distância: 77NM
Origem: SBJD Destino: SDQE Duração: 1.90
Validação: Rejeitado Tipo: Charter Matrícula: PT-GLD
ZFW: 4930 Block Fuel/Init FOB 405/0 Combustível em Voo 405
Passageiros: 8 Carga: 100 Alternativo: SBBH
Hora da Decolagem: 1259 Velocidade de Cruzeiro: 170 Nível de Voo: 100
Regra Visual: IFR ICAO da Aeronave: C208 Unidade de Peso: Kg
Data: 15/09/2024 Observação: GOLD ACARS Rede: IVAO
Acidentou?: Não Comentários do Validador: Não atingiu o rating minimo de 70.0 Pontuação do Voo 0

 ROTA

ROTA KONV1A KONVI DCT MAPMI DCT UKPAD DCT TRIVI DCT ESMEG DCT
REMARKS OPR/GOLD VIRTUAL AIRLINES PER/A RMK/FROM SBJD RMK/PIC GLD879 RMK/BRCONECTA24

 PENALIDADES DO VOO

Para entender como cada item é pontuado, consulte as regras de avaliação.

Nenhuma penalidade registrada para este voo.

 ANÁLISE DO POUSO

Vento durante o pouso: 0º/0 kt Proa durante o pouso: 0
V/S do Pouso: 0 ft/min IAS do Pouso: 0 kt
Força G no pouso: 0 G Bank no pouso: 0
Pitch no Pouso 0 Flaps no Pouso 0
Nav Lights OFF Landing Lights OFF
Beacon Lights OFF Strobe Lights OFF

 MAPA DO VOO

 PERFIL VERTICAL DO VOO

 EVENTOS PRINCIPAIS DO VOO

DATAEVENTOIASALTITUDE
2024-09-15 12:59:17 GOLD ACARS VERSION 3.3.2.000
2024-09-15 12:59:17 BOARDING02777
2024-09-15 12:59:17 LITTLENAVMAP ON02777
2024-09-15 13:01:26 STARTING ENGINE 102777
2024-09-15 13:01:27 BEACON LIGHT OFF & ENGINE ON02777
2024-09-15 13:04:11 TAXI TO THE RWY42586
2024-09-15 13:04:11 TAXING WITH TAXI LIGHTS OFF42586
2024-09-15 13:07:32 FLAP 33%22560
2024-09-15 13:08:27 BCN LIGHTS ON02558
2024-09-15 13:08:28 STB LIGHTS ON02558
2024-09-15 13:08:29 TAXI LIGHTS ON02558
2024-09-15 13:08:30 LND LIGHTS ON02558
2024-09-15 13:09:07 GEAR UP1022583
2024-09-15 13:09:11 CLIMBING1112606
2024-09-15 13:09:35 AP ENGAGED1223074
2024-09-15 13:09:53 CRUISE1253529
2024-09-15 13:10:05 CLIMBING1403573
2024-09-15 13:15:16 CRUISE1367892
2024-09-15 13:32:06 CLIMBING1467756
2024-09-15 13:32:18 CRUISE1427895
2024-09-15 13:32:22 CLIMBING1417916
2024-09-15 13:32:24 CRUISE1417938
2024-09-15 13:32:34 CLIMBING1397979
2024-09-15 13:32:37 CRUISE1418005
2024-09-15 13:32:40 CLIMBING1438020
2024-09-15 13:32:41 CRUISE1428027
2024-09-15 13:32:48 CLIMBING1438039
2024-09-15 13:32:50 CRUISE1458055
2024-09-15 13:33:11 DESCEND1538113
2024-09-15 13:33:40 CLIMBING1568070
2024-09-15 13:33:43 CRUISE1538095
2024-09-15 13:34:47 DESCEND1508021
2024-09-15 13:34:51 CLIMBING1488012
2024-09-15 13:36:00 CRUISE1318841
2024-09-15 13:36:22 CLIMBING1308936
2024-09-15 13:36:25 CRUISE1328957
2024-09-15 13:36:26 CLIMBING1368967
2024-09-15 13:36:29 CRUISE1338982
2024-09-15 13:36:32 CLIMBING1368992
2024-09-15 13:36:34 CRUISE1379006
2024-09-15 13:36:42 CLIMBING1429018
2024-09-15 13:36:43 CRUISE1399026
2024-09-15 13:36:47 CLIMBING1429038
2024-09-15 13:36:48 CRUISE1409045
2024-09-15 13:37:17 FLAP 0%1499081
2024-09-15 14:53:05 LANDED NOT IN THE PLANNED AIRPORT [SBCF] - [lat: -22,5705844544025] - [long: -46,1168171320165]1539035
2024-09-15 14:53:06 FLIGHT FINISHED1539035

 DADOS DO ACARS

DATA IAS GS ALTITUDE COMBUSTÍVEL USADO OAT FASE DO VOO
2024-09-15 13:00:30 1 0 2777 -577 14 BOARDING
2024-09-15 13:01:31 1 0 2777 -597 14 BOARDING
2024-09-15 13:02:32 1 0 2777 -596 14 BOARDING
2024-09-15 13:03:32 1 0 2587 -594 14 BOARDING
2024-09-15 13:04:33 19 20 2581 -593 14 BOARDING
2024-09-15 13:05:34 7 5 2560 -592 14 TAXI TO THE RWY
2024-09-15 13:06:35 1 0 2560 -591 14 TAXI TO THE RWY
2024-09-15 13:07:35 6 6 2560 -589 14 TAXI TO THE RWY
2024-09-15 13:08:36 0 0 2558 -587 14 TAXI TO THE RWY
2024-09-15 13:09:37 121 127 3134 -584 13 TAXI TO THE RWY
2024-09-15 13:10:37 142 154 4113 -580 12 CLIMBING
2024-09-15 13:11:38 137 148 4978 -576 10 CLIMBING
2024-09-15 13:12:39 141 154 5818 -573 8 CLIMBING
2024-09-15 13:13:39 134 148 6687 -570 6 CLIMBING
2024-09-15 13:14:40 133 150 7505 -567 5 CLIMBING
2024-09-15 13:15:41 145 164 7977 -563 5 CLIMBING
2024-09-15 13:16:42 152 173 8026 -560 4 CRUISE
2024-09-15 13:17:42 149 170 8002 -557 4 CRUISE
2024-09-15 13:18:43 146 166 8015 -555 4 CRUISE
2024-09-15 13:19:44 146 166 8007 -552 4 CRUISE
2024-09-15 13:20:44 144 165 8002 -549 6 CRUISE
2024-09-15 13:21:45 146 166 7998 -546 4 CRUISE
2024-09-15 13:22:46 145 166 7998 -543 5 CRUISE
2024-09-15 13:23:47 146 167 7997 -541 4 CRUISE
2024-09-15 13:24:47 147 169 8028 -538 5 CRUISE
2024-09-15 13:25:48 146 167 8007 -535 5 CRUISE
2024-09-15 13:26:49 146 168 8010 -532 7 CRUISE
2024-09-15 13:27:49 147 169 8004 -530 5 CRUISE
2024-09-15 13:28:50 145 167 7998 -527 6 CRUISE
2024-09-15 13:29:51 147 170 7993 -524 7 CRUISE
2024-09-15 13:30:51 145 168 8000 -521 7 CRUISE
2024-09-15 13:31:52 147 171 8048 -519 8 CRUISE
2024-09-15 13:32:53 146 171 8063 -516 12 CRUISE
2024-09-15 13:33:54 153 178 8120 -513 11 CRUISE
2024-09-15 13:34:54 149 159 8047 -510 11 CRUISE
2024-09-15 13:35:55 129 139 8784 -507 10 CLIMBING
2024-09-15 13:36:56 146 157 9060 -504 9 CLIMBING
2024-09-15 13:37:57 153 168 9033 -502 9 CRUISE
2024-09-15 13:38:58 153 168 9033 -501 9 CRUISE
2024-09-15 13:39:58 153 168 9033 -498 9 CRUISE
2024-09-15 13:40:59 153 168 9033 -495 9 CRUISE
2024-09-15 13:42:00 153 168 9033 -492 9 CRUISE
2024-09-15 13:43:01 153 168 9033 -490 9 CRUISE
2024-09-15 13:44:01 153 168 9033 -487 9 CRUISE
2024-09-15 13:45:02 153 168 9033 -484 9 CRUISE
2024-09-15 13:46:03 153 168 9033 -481 9 CRUISE
2024-09-15 13:47:04 153 168 9033 -478 9 CRUISE
2024-09-15 13:48:04 153 168 9033 -475 9 CRUISE
2024-09-15 13:49:05 153 168 9033 -473 9 CRUISE
2024-09-15 13:50:06 153 168 9033 -470 9 CRUISE
2024-09-15 13:51:06 153 168 9033 -467 9 CRUISE
2024-09-15 13:52:07 153 168 9033 -464 9 CRUISE
2024-09-15 13:53:08 153 168 9033 -461 9 CRUISE
2024-09-15 13:54:08 153 168 9033 -458 9 CRUISE
2024-09-15 13:55:09 153 168 9033 -455 9 CRUISE
2024-09-15 13:56:10 153 168 9033 -453 9 CRUISE
2024-09-15 13:57:11 153 168 9033 -450 9 CRUISE
2024-09-15 13:58:11 153 168 9033 -447 9 CRUISE
2024-09-15 13:59:12 153 168 9033 -444 9 CRUISE
2024-09-15 14:00:13 153 168 9033 -441 9 CRUISE
2024-09-15 14:01:13 153 168 9033 -438 9 CRUISE
2024-09-15 14:02:14 153 168 9033 -435 9 CRUISE
2024-09-15 14:03:15 153 168 9033 -433 9 CRUISE
2024-09-15 14:04:16 153 168 9033 -430 9 CRUISE
2024-09-15 14:05:16 153 168 9033 -427 9 CRUISE
2024-09-15 14:06:17 153 168 9033 -424 9 CRUISE
2024-09-15 14:07:18 153 168 9033 -421 9 CRUISE
2024-09-15 14:08:18 153 168 9033 -418 9 CRUISE
2024-09-15 14:09:19 153 168 9033 -415 9 CRUISE
2024-09-15 14:10:20 153 168 9033 -413 9 CRUISE
2024-09-15 14:11:20 153 168 9033 -410 9 CRUISE
2024-09-15 14:12:21 153 168 9033 -407 9 CRUISE
2024-09-15 14:13:22 153 168 9033 -404 9 CRUISE
2024-09-15 14:14:23 153 168 9033 -401 9 CRUISE
2024-09-15 14:15:23 153 168 9033 -398 9 CRUISE
2024-09-15 14:16:24 153 168 9033 -395 9 CRUISE
2024-09-15 14:17:25 153 168 9033 -392 9 CRUISE
2024-09-15 14:18:25 153 168 9033 -390 9 CRUISE
2024-09-15 14:19:26 153 168 9033 -387 9 CRUISE
2024-09-15 14:20:27 153 168 9033 -384 9 CRUISE
2024-09-15 14:21:27 153 168 9033 -381 9 CRUISE
2024-09-15 14:22:28 153 168 9033 -378 9 CRUISE
2024-09-15 14:23:29 153 168 9033 -375 9 CRUISE
2024-09-15 14:24:29 153 168 9033 -372 9 CRUISE
2024-09-15 14:25:30 153 168 9033 -370 9 CRUISE
2024-09-15 14:26:31 153 168 9033 -367 9 CRUISE
2024-09-15 14:27:32 153 168 9033 -364 9 CRUISE
2024-09-15 14:28:32 153 168 9033 -361 9 CRUISE
2024-09-15 14:29:33 153 168 9033 -358 9 CRUISE
2024-09-15 14:30:34 153 168 9033 -355 9 CRUISE
2024-09-15 14:31:34 153 168 9033 -352 9 CRUISE
2024-09-15 14:32:35 153 168 9033 -349 9 CRUISE
2024-09-15 14:33:36 153 168 9033 -347 9 CRUISE
2024-09-15 14:34:36 153 168 9033 -344 9 CRUISE
2024-09-15 14:35:37 153 168 9033 -341 9 CRUISE
2024-09-15 14:36:38 153 168 9033 -338 9 CRUISE
2024-09-15 14:37:39 153 168 9033 -335 9 CRUISE
2024-09-15 14:38:39 153 168 9033 -333 9 CRUISE
2024-09-15 14:39:40 153 168 9033 -330 9 CRUISE
2024-09-15 14:40:41 153 168 9033 -327 9 CRUISE
2024-09-15 14:41:41 153 168 9033 -324 9 CRUISE
2024-09-15 14:42:42 153 168 9033 -322 9 CRUISE
2024-09-15 14:43:43 153 168 9033 -320 9 CRUISE
2024-09-15 14:44:43 153 168 9033 -318 9 CRUISE
2024-09-15 14:45:44 153 168 9033 -316 9 CRUISE
2024-09-15 14:46:45 153 168 9033 -314 9 CRUISE
2024-09-15 14:47:46 153 168 9033 -312 9 CRUISE
2024-09-15 14:48:46 153 168 9033 -310 9 CRUISE
2024-09-15 14:49:47 153 168 9033 -307 9 CRUISE
2024-09-15 14:50:48 153 168 9033 -305 9 CRUISE
2024-09-15 14:51:48 153 168 9033 -303 9 CRUISE
2024-09-15 14:52:49 153 168 9033 -301 9 CRUISE